map of DAC home
DAC - Airport
Location
City:  Dhaka, Bangladesh
Name:Hazrat Shahjalal International Airport
Old (Alt.):Zia International Airport
ICAO:VGHS
IATA:DAC

Details
Type:Airport (Aerodrome, Airfield)
Use:Public/Civil, International (customs port of entry)
Latitude:23°50'34"N (23.842778)
Longitude:90°24'02"E (90.400556)
Elevation:27 ft (8 m)
Variation:0.37°W (WMM2015v2 magnetic declination)
-0.02° annual change
Runways:1
Longest:10499 × 148 ft (3200 × 45 m), paved

Time
Time Zone:UTC+6
Local Time:

Weather
METAR:VGHS 041400Z 31007KT 3500 HZ NSC 21/12 Q1018 NOSIG
TAF:VGHS 041100Z 0412/0518 30005KT 3200 HZ NSC
BECMG 0420/0422 29004KT 2500 HZ/BR SCT012
BECMG 0423/0501 00000KT 1200 BR SCT010
BECMG 0503/0505 30005KT 2500 HZ NSC
BECMG 0507/0509 28006KT 3500 HZ NSC

Related Locations
Nearby:
Farthest:SCFX: 11827 mi / 19033 km
Isla San Félix, Desventuradas Islands, VS, CL

Find:

   beyond  
but within

Other Information
Maps:
NOTAMs:
Links:
Sources:

  
  • flag of Bangladesh
  

Sectional Chart

Flight Planning
at skyvector.com

Satellite Image

Google Maps Satellite view

 

Copyright © 2004-2019 Karl L. Swartz. All rights reserved.
The Great Circle Mapper name and logo are trademarks of the Great Circle Mapper.
All other trademarks mentioned herein belong to their respective owners.
Please see credits for attibutions and further copyright information.

  Follow gcmap on Facebook Follow gcmap on Twitter GCmap on LinkedIn

hCard Microformat

Geo Microformat